Terminal Aerodrome Forecast
Issued by NWS

Home | Current Version | Previous Version | Text Only | Print | Product List | Glossary On
Versions: 1 2 3 4 5 6 7 8 9 10 11 12 13 14
000
FTAK31 PAJN 161800 AAA
TAFAJN
TAF AMD
PAJN 161822Z 1618/1718 24008KT P6SM BKN040 BKN090
     FM170200 09005KT P6SM BKN090
     FM170600 00000KT P6SM BKN100
     FM171500 VRB03KT P6SM VCSH BKN100=

USA.gov is the U.S. government's official web portal to all federal, state and local government web resources and services.